sensor_id;sensor_type;location;lat;lon;timestamp;P1;durP1;ratioP1;P2;durP2;ratioP2
14116;SDS011;7137;51.436;6.544;2023-06-24T00:02:58;9.53;;;8.50;;
14116;SDS011;7137;51.436;6.544;2023-06-24T00:06:02;9.63;;;8.73;;
14116;SDS011;7137;51.436;6.544;2023-06-24T00:09:03;8.80;;;7.90;;
14116;SDS011;7137;51.436;6.544;2023-06-24T00:12:07;9.10;;;8.20;;
14116;SDS011;7137;51.436;6.544;2023-06-24T00:15:09;9.03;;;8.13;;
14116;SDS011;7137;51.436;6.544;2023-06-24T00:18:11;9.80;;;8.80;;
14116;SDS011;7137;51.436;6.544;2023-06-24T00:21:13;9.50;;;8.60;;
14116;SDS011;7137;51.436;6.544;2023-06-24T00:24:17;9.87;;;8.63;;
14116;SDS011;7137;51.436;6.544;2023-06-24T00:27:20;10.23;;;9.20;;
14116;SDS011;7137;51.436;6.544;2023-06-24T00:30:22;9.73;;;8.83;;
14116;SDS011;7137;51.436;6.544;2023-06-24T00:33:24;9.93;;;8.27;;
14116;SDS011;7137;51.436;6.544;2023-06-24T00:36:25;9.30;;;8.40;;
14116;SDS011;7137;51.436;6.544;2023-06-24T00:39:27;9.70;;;8.70;;
14116;SDS011;7137;51.436;6.544;2023-06-24T00:42:30;10.40;;;8.73;;
14116;SDS011;7137;51.436;6.544;2023-06-24T00:45:32;9.33;;;8.27;;
14116;SDS011;7137;51.436;6.544;2023-06-24T00:48:33;10.20;;;8.47;;
14116;SDS011;7137;51.436;6.544;2023-06-24T00:51:35;9.63;;;8.63;;
14116;SDS011;7137;51.436;6.544;2023-06-24T00:54:36;9.83;;;8.83;;
14116;SDS011;7137;51.436;6.544;2023-06-24T00:57:39;9.90;;;8.87;;
14116;SDS011;7137;51.436;6.544;2023-06-24T01:00:42;10.50;;;9.00;;
14116;SDS011;7137;51.436;6.544;2023-06-24T01:03:46;9.60;;;8.07;;
14116;SDS011;7137;51.436;6.544;2023-06-24T01:06:48;9.43;;;8.43;;
14116;SDS011;7137;51.436;6.544;2023-06-24T01:09:50;10.50;;;9.50;;
14116;SDS011;7137;51.436;6.544;2023-06-24T01:12:53;10.40;;;9.30;;
14116;SDS011;7137;51.436;6.544;2023-06-24T01:15:55;10.20;;;9.20;;
14116;SDS011;7137;51.436;6.544;2023-06-24T01:19:00;10.50;;;9.50;;
14116;SDS011;7137;51.436;6.544;2023-06-24T01:22:15;10.87;;;9.20;;
14116;SDS011;7137;51.436;6.544;2023-06-24T01:25:33;10.17;;;8.83;;
14116;SDS011;7137;51.436;6.544;2023-06-24T01:29:07;10.60;;;8.80;;
14116;SDS011;7137;51.436;6.544;2023-06-24T01:32:24;10.80;;;9.70;;
14116;SDS011;7137;51.436;6.544;2023-06-24T01:35:31;11.30;;;10.10;;
14116;SDS011;7137;51.436;6.544;2023-06-24T01:38:36;11.00;;;9.90;;
14116;SDS011;7137;51.436;6.544;2023-06-24T01:41:43;11.33;;;9.83;;
14116;SDS011;7137;51.436;6.544;2023-06-24T01:44:48;11.33;;;10.23;;
14116;SDS011;7137;51.436;6.544;2023-06-24T01:47:58;11.20;;;10.00;;
14116;SDS011;7137;51.436;6.544;2023-06-24T01:51:03;11.50;;;10.40;;
14116;SDS011;7137;51.436;6.544;2023-06-24T01:54:10;11.30;;;9.57;;
14116;SDS011;7137;51.436;6.544;2023-06-24T01:57:14;10.63;;;9.40;;
14116;SDS011;7137;51.436;6.544;2023-06-24T02:00:18;11.03;;;9.77;;
14116;SDS011;7137;51.436;6.544;2023-06-24T02:03:23;10.60;;;9.60;;
14116;SDS011;7137;51.436;6.544;2023-06-24T02:06:27;11.27;;;10.17;;
14116;SDS011;7137;51.436;6.544;2023-06-24T02:09:31;11.27;;;9.53;;
14116;SDS011;7137;51.436;6.544;2023-06-24T02:12:34;10.77;;;9.20;;
14116;SDS011;7137;51.436;6.544;2023-06-24T02:15:36;10.50;;;9.40;;
14116;SDS011;7137;51.436;6.544;2023-06-24T02:18:41;11.03;;;9.07;;
14116;SDS011;7137;51.436;6.544;2023-06-24T02:21:45;11.50;;;9.37;;
14116;SDS011;7137;51.436;6.544;2023-06-24T02:24:48;12.47;;;9.80;;
14116;SDS011;7137;51.436;6.544;2023-06-24T02:27:50;11.20;;;9.80;;
14116;SDS011;7137;51.436;6.544;2023-06-24T02:30:53;10.47;;;9.47;;
14116;SDS011;7137;51.436;6.544;2023-06-24T02:33:56;10.67;;;9.57;;
14116;SDS011;7137;51.436;6.544;2023-06-24T02:36:58;11.17;;;9.93;;
14116;SDS011;7137;51.436;6.544;2023-06-24T02:40:00;11.07;;;9.47;;
14116;SDS011;7137;51.436;6.544;2023-06-24T02:43:04;12.90;;;10.80;;
14116;SDS011;7137;51.436;6.544;2023-06-24T02:46:05;11.87;;;10.30;;
14116;SDS011;7137;51.436;6.544;2023-06-24T02:49:10;11.20;;;9.93;;
14116;SDS011;7137;51.436;6.544;2023-06-24T02:52:15;11.37;;;10.17;;
14116;SDS011;7137;51.436;6.544;2023-06-24T02:55:17;11.47;;;10.27;;
14116;SDS011;7137;51.436;6.544;2023-06-24T02:58:19;11.17;;;9.93;;
14116;SDS011;7137;51.436;6.544;2023-06-24T03:01:21;11.17;;;9.53;;
14116;SDS011;7137;51.436;6.544;2023-06-24T03:04:26;11.33;;;10.23;;
14116;SDS011;7137;51.436;6.544;2023-06-24T03:07:29;11.93;;;9.73;;
14116;SDS011;7137;51.436;6.544;2023-06-24T03:10:35;10.63;;;9.53;;
14116;SDS011;7137;51.436;6.544;2023-06-24T03:13:37;12.47;;;10.20;;
14116;SDS011;7137;51.436;6.544;2023-06-24T03:16:39;13.23;;;9.83;;
14116;SDS011;7137;51.436;6.544;2023-06-24T03:19:42;11.53;;;9.87;;
14116;SDS011;7137;51.436;6.544;2023-06-24T03:22:44;12.63;;;10.07;;
14116;SDS011;7137;51.436;6.544;2023-06-24T03:25:46;11.33;;;10.10;;
14116;SDS011;7137;51.436;6.544;2023-06-24T03:28:47;12.30;;;10.77;;
14116;SDS011;7137;51.436;6.544;2023-06-24T03:31:49;13.63;;;10.23;;
14116;SDS011;7137;51.436;6.544;2023-06-24T03:34:52;12.07;;;10.80;;
14116;SDS011;7137;51.436;6.544;2023-06-24T03:37:54;13.53;;;10.77;;
14116;SDS011;7137;51.436;6.544;2023-06-24T03:40:55;13.03;;;10.20;;
14116;SDS011;7137;51.436;6.544;2023-06-24T03:43:57;11.97;;;10.77;;
14116;SDS011;7137;51.436;6.544;2023-06-24T03:46:58;12.70;;;11.50;;
14116;SDS011;7137;51.436;6.544;2023-06-24T03:50:01;13.97;;;10.63;;
14116;SDS011;7137;51.436;6.544;2023-06-24T03:53:03;15.07;;;11.93;;
14116;SDS011;7137;51.436;6.544;2023-06-24T03:56:05;13.33;;;11.13;;
14116;SDS011;7137;51.436;6.544;2023-06-24T03:59:07;12.57;;;10.53;;
14116;SDS011;7137;51.436;6.544;2023-06-24T04:02:09;12.07;;;10.83;;
14116;SDS011;7137;51.436;6.544;2023-06-24T04:05:11;12.43;;;10.77;;
14116;SDS011;7137;51.436;6.544;2023-06-24T04:08:13;11.77;;;10.57;;
14116;SDS011;7137;51.436;6.544;2023-06-24T04:11:15;16.00;;;11.57;;
14116;SDS011;7137;51.436;6.544;2023-06-24T04:14:16;11.37;;;10.23;;
14116;SDS011;7137;51.436;6.544;2023-06-24T04:17:18;13.30;;;11.30;;
14116;SDS011;7137;51.436;6.544;2023-06-24T04:20:21;12.97;;;11.17;;
14116;SDS011;7137;51.436;6.544;2023-06-24T04:23:22;12.97;;;11.57;;
14116;SDS011;7137;51.436;6.544;2023-06-24T04:26:24;13.47;;;12.07;;
14116;SDS011;7137;51.436;6.544;2023-06-24T04:29:25;13.03;;;11.30;;
14116;SDS011;7137;51.436;6.544;2023-06-24T04:32:27;14.60;;;11.50;;
14116;SDS011;7137;51.436;6.544;2023-06-24T04:35:30;13.03;;;11.80;;
14116;SDS011;7137;51.436;6.544;2023-06-24T04:38:32;14.87;;;12.00;;
14116;SDS011;7137;51.436;6.544;2023-06-24T04:41:33;13.83;;;12.20;;
14116;SDS011;7137;51.436;6.544;2023-06-24T04:44:35;12.77;;;11.43;;
14116;SDS011;7137;51.436;6.544;2023-06-24T04:47:37;13.13;;;10.93;;
14116;SDS011;7137;51.436;6.544;2023-06-24T04:50:40;13.60;;;12.23;;
14116;SDS011;7137;51.436;6.544;2023-06-24T04:53:41;13.63;;;10.83;;
14116;SDS011;7137;51.436;6.544;2023-06-24T04:56:43;13.20;;;11.67;;
14116;SDS011;7137;51.436;6.544;2023-06-24T04:59:45;13.47;;;11.70;;
14116;SDS011;7137;51.436;6.544;2023-06-24T05:02:47;13.50;;;12.03;;
14116;SDS011;7137;51.436;6.544;2023-06-24T05:05:49;12.87;;;11.43;;
14116;SDS011;7137;51.436;6.544;2023-06-24T05:08:51;12.90;;;11.17;;
14116;SDS011;7137;51.436;6.544;2023-06-24T05:11:52;13.07;;;10.90;;
14116;SDS011;7137;51.436;6.544;2023-06-24T05:14:54;12.83;;;10.97;;
14116;SDS011;7137;51.436;6.544;2023-06-24T05:17:56;12.77;;;11.40;;
14116;SDS011;7137;51.436;6.544;2023-06-24T05:20:59;12.30;;;10.93;;
14116;SDS011;7137;51.436;6.544;2023-06-24T05:24:00;12.87;;;11.57;;
14116;SDS011;7137;51.436;6.544;2023-06-24T05:27:03;13.00;;;11.70;;
14116;SDS011;7137;51.436;6.544;2023-06-24T05:30:06;14.13;;;11.27;;
14116;SDS011;7137;51.436;6.544;2023-06-24T05:33:08;13.27;;;11.97;;
14116;SDS011;7137;51.436;6.544;2023-06-24T05:36:12;13.37;;;12.07;;
14116;SDS011;7137;51.436;6.544;2023-06-24T05:39:13;14.17;;;11.23;;
14116;SDS011;7137;51.436;6.544;2023-06-24T05:42:15;13.40;;;11.73;;
14116;SDS011;7137;51.436;6.544;2023-06-24T05:45:16;12.47;;;11.10;;
14116;SDS011;7137;51.436;6.544;2023-06-24T05:48:18;11.00;;;9.80;;
14116;SDS011;7137;51.436;6.544;2023-06-24T05:51:21;12.67;;;11.37;;
14116;SDS011;7137;51.436;6.544;2023-06-24T05:54:22;12.47;;;10.77;;
14116;SDS011;7137;51.436;6.544;2023-06-24T05:57:24;15.10;;;11.80;;
14116;SDS011;7137;51.436;6.544;2023-06-24T06:00:25;13.17;;;11.90;;
14116;SDS011;7137;51.436;6.544;2023-06-24T06:03:27;15.47;;;11.90;;
14116;SDS011;7137;51.436;6.544;2023-06-24T06:06:30;13.27;;;11.87;;
14116;SDS011;7137;51.436;6.544;2023-06-24T06:09:31;12.13;;;10.93;;
14116;SDS011;7137;51.436;6.544;2023-06-24T06:12:33;13.20;;;11.90;;
14116;SDS011;7137;51.436;6.544;2023-06-24T06:15:35;13.73;;;12.30;;
14116;SDS011;7137;51.436;6.544;2023-06-24T06:18:36;12.90;;;11.70;;
14116;SDS011;7137;51.436;6.544;2023-06-24T06:21:39;14.13;;;12.73;;
14116;SDS011;7137;51.436;6.544;2023-06-24T06:24:41;13.37;;;12.03;;
14116;SDS011;7137;51.436;6.544;2023-06-24T06:27:43;13.87;;;12.57;;
14116;SDS011;7137;51.436;6.544;2023-06-24T06:30:45;13.77;;;12.47;;
14116;SDS011;7137;51.436;6.544;2023-06-24T06:33:47;13.00;;;11.80;;
14116;SDS011;7137;51.436;6.544;2023-06-24T06:36:50;11.53;;;10.27;;
14116;SDS011;7137;51.436;6.544;2023-06-24T06:39:51;11.83;;;10.63;;
14116;SDS011;7137;51.436;6.544;2023-06-24T06:42:53;10.47;;;9.43;;
14116;SDS011;7137;51.436;6.544;2023-06-24T06:45:54;10.03;;;9.03;;
14116;SDS011;7137;51.436;6.544;2023-06-24T06:48:57;11.17;;;10.00;;
14116;SDS011;7137;51.436;6.544;2023-06-24T06:52:01;10.67;;;9.57;;
14116;SDS011;7137;51.436;6.544;2023-06-24T06:55:02;8.90;;;8.00;;
14116;SDS011;7137;51.436;6.544;2023-06-24T06:58:05;10.70;;;9.70;;
14116;SDS011;7137;51.436;6.544;2023-06-24T07:01:07;10.80;;;8.37;;
14116;SDS011;7137;51.436;6.544;2023-06-24T07:04:08;9.80;;;8.80;;
14116;SDS011;7137;51.436;6.544;2023-06-24T07:07:11;9.87;;;8.87;;
14116;SDS011;7137;51.436;6.544;2023-06-24T07:10:13;9.50;;;8.00;;
14116;SDS011;7137;51.436;6.544;2023-06-24T07:13:14;8.20;;;7.40;;
14116;SDS011;7137;51.436;6.544;2023-06-24T07:16:16;7.90;;;7.00;;
14116;SDS011;7137;51.436;6.544;2023-06-24T07:19:18;8.37;;;7.47;;
14116;SDS011;7137;51.436;6.544;2023-06-24T07:22:20;7.23;;;6.53;;
14116;SDS011;7137;51.436;6.544;2023-06-24T07:25:22;7.43;;;6.03;;
14116;SDS011;7137;51.436;6.544;2023-06-24T07:28:24;7.50;;;5.40;;
14116;SDS011;7137;51.436;6.544;2023-06-24T07:31:25;7.93;;;7.13;;
14116;SDS011;7137;51.436;6.544;2023-06-24T07:34:28;9.17;;;6.77;;
14116;SDS011;7137;51.436;6.544;2023-06-24T07:37:32;6.77;;;5.77;;
14116;SDS011;7137;51.436;6.544;2023-06-24T07:40:33;6.87;;;5.50;;
14116;SDS011;7137;51.436;6.544;2023-06-24T07:43:35;5.70;;;4.60;;
14116;SDS011;7137;51.436;6.544;2023-06-24T07:46:36;5.43;;;4.50;;
14116;SDS011;7137;51.436;6.544;2023-06-24T07:49:38;6.43;;;4.97;;
14116;SDS011;7137;51.436;6.544;2023-06-24T07:52:41;5.33;;;4.10;;
14116;SDS011;7137;51.436;6.544;2023-06-24T07:55:42;5.03;;;3.60;;
14116;SDS011;7137;51.436;6.544;2023-06-24T07:58:44;5.80;;;3.93;;
14116;SDS011;7137;51.436;6.544;2023-06-24T08:01:45;5.27;;;3.70;;
14116;SDS011;7137;51.436;6.544;2023-06-24T08:04:47;6.03;;;4.30;;
14116;SDS011;7137;51.436;6.544;2023-06-24T08:07:50;5.60;;;4.50;;
14116;SDS011;7137;51.436;6.544;2023-06-24T08:10:52;5.70;;;3.97;;
14116;SDS011;7137;51.436;6.544;2023-06-24T08:13:53;6.47;;;4.53;;
14116;SDS011;7137;51.436;6.544;2023-06-24T08:16:55;6.30;;;4.50;;
14116;SDS011;7137;51.436;6.544;2023-06-24T08:19:56;6.40;;;5.27;;
14116;SDS011;7137;51.436;6.544;2023-06-24T08:22:59;6.37;;;4.80;;
14116;SDS011;7137;51.436;6.544;2023-06-24T08:26:01;5.80;;;4.80;;
14116;SDS011;7137;51.436;6.544;2023-06-24T08:29:03;6.27;;;3.67;;
14116;SDS011;7137;51.436;6.544;2023-06-24T08:32:06;6.50;;;4.73;;
14116;SDS011;7137;51.436;6.544;2023-06-24T08:35:08;6.93;;;4.97;;
14116;SDS011;7137;51.436;6.544;2023-06-24T08:38:11;8.10;;;5.60;;
14116;SDS011;7137;51.436;6.544;2023-06-24T08:41:13;7.17;;;5.00;;
14116;SDS011;7137;51.436;6.544;2023-06-24T08:44:14;8.60;;;5.80;;
14116;SDS011;7137;51.436;6.544;2023-06-24T08:47:16;8.80;;;6.57;;
14116;SDS011;7137;51.436;6.544;2023-06-24T08:50:19;8.70;;;6.40;;
14116;SDS011;7137;51.436;6.544;2023-06-24T08:53:23;8.40;;;6.40;;
14116;SDS011;7137;51.436;6.544;2023-06-24T08:56:27;9.03;;;7.37;;
14116;SDS011;7137;51.436;6.544;2023-06-24T08:59:29;9.67;;;7.17;;
14116;SDS011;7137;51.436;6.544;2023-06-24T09:02:30;8.60;;;7.33;;
14116;SDS011;7137;51.436;6.544;2023-06-24T09:05:35;9.37;;;7.17;;
14116;SDS011;7137;51.436;6.544;2023-06-24T09:08:38;7.60;;;5.60;;
14116;SDS011;7137;51.436;6.544;2023-06-24T09:11:41;8.10;;;6.00;;
14116;SDS011;7137;51.436;6.544;2023-06-24T09:14:47;8.60;;;5.93;;
14116;SDS011;7137;51.436;6.544;2023-06-24T09:17:49;9.17;;;5.90;;
14116;SDS011;7137;51.436;6.544;2023-06-24T09:20:51;7.07;;;4.87;;
14116;SDS011;7137;51.436;6.544;2023-06-24T09:23:57;6.30;;;4.87;;
14116;SDS011;7137;51.436;6.544;2023-06-24T09:27:00;8.13;;;5.10;;
14116;SDS011;7137;51.436;6.544;2023-06-24T09:30:04;6.30;;;4.60;;
14116;SDS011;7137;51.436;6.544;2023-06-24T09:33:21;6.43;;;3.47;;
14116;SDS011;7137;51.436;6.544;2023-06-24T09:36:23;5.93;;;3.80;;
14116;SDS011;7137;51.436;6.544;2023-06-24T09:39:26;5.50;;;4.00;;
14116;SDS011;7137;51.436;6.544;2023-06-24T09:42:30;8.50;;;5.80;;
14116;SDS011;7137;51.436;6.544;2023-06-24T09:45:31;6.30;;;5.30;;
14116;SDS011;7137;51.436;6.544;2023-06-24T09:48:33;7.87;;;6.03;;
14116;SDS011;7137;51.436;6.544;2023-06-24T09:51:36;6.90;;;5.30;;
14116;SDS011;7137;51.436;6.544;2023-06-24T09:54:40;8.30;;;5.53;;
14116;SDS011;7137;51.436;6.544;2023-06-24T09:57:44;6.77;;;5.13;;
14116;SDS011;7137;51.436;6.544;2023-06-24T10:00:46;6.40;;;5.00;;
14116;SDS011;7137;51.436;6.544;2023-06-24T10:03:49;7.33;;;4.57;;
14116;SDS011;7137;51.436;6.544;2023-06-24T10:06:51;9.13;;;5.27;;
14116;SDS011;7137;51.436;6.544;2023-06-24T10:09:54;7.03;;;5.00;;
14116;SDS011;7137;51.436;6.544;2023-06-24T10:12:55;7.43;;;5.77;;
14116;SDS011;7137;51.436;6.544;2023-06-24T10:15:57;7.57;;;5.60;;
14116;SDS011;7137;51.436;6.544;2023-06-24T10:18:59;7.80;;;5.80;;
14116;SDS011;7137;51.436;6.544;2023-06-24T10:22:02;6.47;;;5.10;;
14116;SDS011;7137;51.436;6.544;2023-06-24T10:25:06;6.97;;;5.70;;
14116;SDS011;7137;51.436;6.544;2023-06-24T10:28:08;8.27;;;5.20;;
14116;SDS011;7137;51.436;6.544;2023-06-24T10:31:10;6.53;;;4.93;;
14116;SDS011;7137;51.436;6.544;2023-06-24T10:34:19;6.70;;;5.03;;
14116;SDS011;7137;51.436;6.544;2023-06-24T10:37:24;6.67;;;5.10;;
14116;SDS011;7137;51.436;6.544;2023-06-24T10:40:38;7.17;;;4.27;;
14116;SDS011;7137;51.436;6.544;2023-06-24T10:43:41;6.17;;;4.63;;
14116;SDS011;7137;51.436;6.544;2023-06-24T10:46:42;7.53;;;4.73;;
14116;SDS011;7137;51.436;6.544;2023-06-24T10:49:55;7.77;;;4.87;;
14116;SDS011;7137;51.436;6.544;2023-06-24T10:52:57;6.67;;;4.90;;
14116;SDS011;7137;51.436;6.544;2023-06-24T10:56:02;7.30;;;4.97;;
14116;SDS011;7137;51.436;6.544;2023-06-24T10:59:05;5.93;;;4.30;;
14116;SDS011;7137;51.436;6.544;2023-06-24T11:02:07;4.80;;;3.50;;
14116;SDS011;7137;51.436;6.544;2023-06-24T11:05:09;5.57;;;3.57;;
14116;SDS011;7137;51.436;6.544;2023-06-24T11:08:11;4.47;;;2.87;;
14116;SDS011;7137;51.436;6.544;2023-06-24T11:11:19;4.87;;;2.77;;
14116;SDS011;7137;51.436;6.544;2023-06-24T11:14:22;5.57;;;3.50;;
14116;SDS011;7137;51.436;6.544;2023-06-24T11:17:24;5.47;;;3.37;;
14116;SDS011;7137;51.436;6.544;2023-06-24T11:20:25;4.90;;;3.27;;
14116;SDS011;7137;51.436;6.544;2023-06-24T11:23:27;4.67;;;3.20;;
14116;SDS011;7137;51.436;6.544;2023-06-24T11:26:30;5.40;;;3.20;;
14116;SDS011;7137;51.436;6.544;2023-06-24T11:29:32;5.60;;;3.10;;
14116;SDS011;7137;51.436;6.544;2023-06-24T11:32:35;5.13;;;3.20;;
14116;SDS011;7137;51.436;6.544;2023-06-24T11:35:37;5.13;;;3.70;;
14116;SDS011;7137;51.436;6.544;2023-06-24T11:38:38;4.80;;;3.10;;
14116;SDS011;7137;51.436;6.544;2023-06-24T11:41:41;5.33;;;3.67;;
14116;SDS011;7137;51.436;6.544;2023-06-24T11:44:43;6.00;;;3.50;;
14116;SDS011;7137;51.436;6.544;2023-06-24T11:47:45;4.60;;;2.93;;
14116;SDS011;7137;51.436;6.544;2023-06-24T11:50:52;4.30;;;2.53;;
14116;SDS011;7137;51.436;6.544;2023-06-24T11:53:58;4.07;;;2.77;;
14116;SDS011;7137;51.436;6.544;2023-06-24T11:57:01;3.93;;;2.60;;
14116;SDS011;7137;51.436;6.544;2023-06-24T12:00:04;4.77;;;3.03;;
14116;SDS011;7137;51.436;6.544;2023-06-24T12:03:13;3.90;;;2.17;;
14116;SDS011;7137;51.436;6.544;2023-06-24T12:06:15;4.30;;;2.43;;
14116;SDS011;7137;51.436;6.544;2023-06-24T12:09:17;3.90;;;2.40;;
14116;SDS011;7137;51.436;6.544;2023-06-24T12:12:20;3.53;;;2.27;;
14116;SDS011;7137;51.436;6.544;2023-06-24T12:15:21;4.70;;;3.30;;
14116;SDS011;7137;51.436;6.544;2023-06-24T12:18:23;3.47;;;2.20;;
14116;SDS011;7137;51.436;6.544;2023-06-24T12:21:24;3.80;;;2.43;;
14116;SDS011;7137;51.436;6.544;2023-06-24T12:24:26;4.13;;;2.67;;
14116;SDS011;7137;51.436;6.544;2023-06-24T12:27:28;3.57;;;2.43;;
14116;SDS011;7137;51.436;6.544;2023-06-24T12:30:30;3.37;;;2.20;;
14116;SDS011;7137;51.436;6.544;2023-06-24T12:33:32;3.60;;;2.50;;
14116;SDS011;7137;51.436;6.544;2023-06-24T12:36:34;4.10;;;2.43;;
14116;SDS011;7137;51.436;6.544;2023-06-24T12:39:36;4.50;;;2.10;;
14116;SDS011;7137;51.436;6.544;2023-06-24T12:42:39;3.43;;;2.37;;
14116;SDS011;7137;51.436;6.544;2023-06-24T12:45:40;4.47;;;2.73;;
14116;SDS011;7137;51.436;6.544;2023-06-24T12:48:43;4.50;;;2.57;;
14116;SDS011;7137;51.436;6.544;2023-06-24T12:51:45;3.57;;;2.53;;
14116;SDS011;7137;51.436;6.544;2023-06-24T12:54:46;3.07;;;2.20;;
14116;SDS011;7137;51.436;6.544;2023-06-24T12:57:49;4.77;;;2.47;;
14116;SDS011;7137;51.436;6.544;2023-06-24T13:00:51;3.67;;;2.30;;
14116;SDS011;7137;51.436;6.544;2023-06-24T13:03:52;4.13;;;2.20;;
14116;SDS011;7137;51.436;6.544;2023-06-24T13:06:54;3.80;;;2.30;;
14116;SDS011;7137;51.436;6.544;2023-06-24T13:09:55;3.87;;;2.40;;
14116;SDS011;7137;51.436;6.544;2023-06-24T13:12:58;3.53;;;2.40;;
14116;SDS011;7137;51.436;6.544;2023-06-24T13:16:01;3.43;;;2.37;;
14116;SDS011;7137;51.436;6.544;2023-06-24T13:19:02;3.20;;;2.20;;
14116;SDS011;7137;51.436;6.544;2023-06-24T13:22:04;3.50;;;2.10;;
14116;SDS011;7137;51.436;6.544;2023-06-24T13:25:06;4.80;;;2.23;;
14116;SDS011;7137;51.436;6.544;2023-06-24T13:28:09;4.77;;;2.57;;
14116;SDS011;7137;51.436;6.544;2023-06-24T13:31:11;4.30;;;2.27;;
14116;SDS011;7137;51.436;6.544;2023-06-24T13:34:13;3.40;;;2.40;;
14116;SDS011;7137;51.436;6.544;2023-06-24T13:37:14;4.27;;;1.90;;
14116;SDS011;7137;51.436;6.544;2023-06-24T13:40:16;4.03;;;2.63;;
14116;SDS011;7137;51.436;6.544;2023-06-24T13:43:19;2.83;;;2.00;;
14116;SDS011;7137;51.436;6.544;2023-06-24T13:46:20;2.90;;;1.90;;
14116;SDS011;7137;51.436;6.544;2023-06-24T13:49:23;3.67;;;2.00;;
14116;SDS011;7137;51.436;6.544;2023-06-24T13:52:24;5.07;;;2.20;;
14116;SDS011;7137;51.436;6.544;2023-06-24T13:55:27;3.67;;;1.80;;
14116;SDS011;7137;51.436;6.544;2023-06-24T13:58:30;3.43;;;2.00;;
14116;SDS011;7137;51.436;6.544;2023-06-24T14:01:31;3.00;;;2.10;;
14116;SDS011;7137;51.436;6.544;2023-06-24T14:04:33;3.40;;;2.10;;
14116;SDS011;7137;51.436;6.544;2023-06-24T14:07:34;3.73;;;2.10;;
14116;SDS011;7137;51.436;6.544;2023-06-24T14:10:36;3.00;;;1.97;;
14116;SDS011;7137;51.436;6.544;2023-06-24T14:13:39;3.00;;;1.90;;
14116;SDS011;7137;51.436;6.544;2023-06-24T14:16:40;3.57;;;2.27;;
14116;SDS011;7137;51.436;6.544;2023-06-24T14:19:42;4.00;;;2.20;;
14116;SDS011;7137;51.436;6.544;2023-06-24T14:22:43;3.40;;;1.90;;
14116;SDS011;7137;51.436;6.544;2023-06-24T14:25:45;4.20;;;1.90;;
14116;SDS011;7137;51.436;6.544;2023-06-24T14:28:48;3.23;;;2.00;;
14116;SDS011;7137;51.436;6.544;2023-06-24T14:31:49;4.57;;;2.10;;
14116;SDS011;7137;51.436;6.544;2023-06-24T14:34:51;3.10;;;2.10;;
14116;SDS011;7137;51.436;6.544;2023-06-24T14:37:53;3.37;;;2.20;;
14116;SDS011;7137;51.436;6.544;2023-06-24T14:40:54;3.80;;;2.17;;
14116;SDS011;7137;51.436;6.544;2023-06-24T14:43:58;3.50;;;2.10;;
14116;SDS011;7137;51.436;6.544;2023-06-24T14:46:59;3.13;;;2.07;;
14116;SDS011;7137;51.436;6.544;2023-06-24T14:50:01;3.10;;;1.90;;
14116;SDS011;7137;51.436;6.544;2023-06-24T14:53:03;4.20;;;2.17;;
14116;SDS011;7137;51.436;6.544;2023-06-24T14:56:05;2.90;;;2.00;;
14116;SDS011;7137;51.436;6.544;2023-06-24T14:59:08;3.33;;;2.07;;
14116;SDS011;7137;51.436;6.544;2023-06-24T15:02:10;3.57;;;2.00;;
14116;SDS011;7137;51.436;6.544;2023-06-24T15:05:11;3.07;;;2.00;;
14116;SDS011;7137;51.436;6.544;2023-06-24T15:08:13;3.20;;;1.97;;
14116;SDS011;7137;51.436;6.544;2023-06-24T15:11:14;4.20;;;2.17;;
14116;SDS011;7137;51.436;6.544;2023-06-24T15:14:17;3.13;;;2.00;;
14116;SDS011;7137;51.436;6.544;2023-06-24T15:17:19;4.13;;;2.20;;
14116;SDS011;7137;51.436;6.544;2023-06-24T15:20:21;4.93;;;2.30;;
14116;SDS011;7137;51.436;6.544;2023-06-24T15:23:22;4.03;;;2.10;;
14116;SDS011;7137;51.436;6.544;2023-06-24T15:26:24;2.90;;;2.00;;
14116;SDS011;7137;51.436;6.544;2023-06-24T15:29:27;4.53;;;2.30;;
14116;SDS011;7137;51.436;6.544;2023-06-24T15:32:29;3.30;;;1.80;;
14116;SDS011;7137;51.436;6.544;2023-06-24T15:35:30;3.30;;;2.00;;
14116;SDS011;7137;51.436;6.544;2023-06-24T15:38:32;3.40;;;2.00;;
14116;SDS011;7137;51.436;6.544;2023-06-24T15:41:34;3.20;;;2.00;;
14116;SDS011;7137;51.436;6.544;2023-06-24T15:44:37;4.00;;;2.03;;
14116;SDS011;7137;51.436;6.544;2023-06-24T15:47:39;3.23;;;2.00;;
14116;SDS011;7137;51.436;6.544;2023-06-24T15:50:41;3.17;;;2.10;;
14116;SDS011;7137;51.436;6.544;2023-06-24T15:53:43;3.50;;;2.00;;
14116;SDS011;7137;51.436;6.544;2023-06-24T15:56:44;4.00;;;2.17;;
14116;SDS011;7137;51.436;6.544;2023-06-24T15:59:47;3.80;;;2.10;;
14116;SDS011;7137;51.436;6.544;2023-06-24T16:02:49;3.70;;;2.33;;
14116;SDS011;7137;51.436;6.544;2023-06-24T16:05:50;3.50;;;2.17;;
14116;SDS011;7137;51.436;6.544;2023-06-24T16:08:53;3.47;;;2.07;;
14116;SDS011;7137;51.436;6.544;2023-06-24T16:11:54;3.40;;;2.27;;
14116;SDS011;7137;51.436;6.544;2023-06-24T16:14:57;5.03;;;2.20;;
14116;SDS011;7137;51.436;6.544;2023-06-24T16:17:59;4.00;;;2.60;;
14116;SDS011;7137;51.436;6.544;2023-06-24T16:21:00;4.77;;;2.20;;
14116;SDS011;7137;51.436;6.544;2023-06-24T16:24:02;4.07;;;2.20;;
14116;SDS011;7137;51.436;6.544;2023-06-24T16:27:04;4.33;;;2.47;;
14116;SDS011;7137;51.436;6.544;2023-06-24T16:30:07;3.80;;;2.50;;
14116;SDS011;7137;51.436;6.544;2023-06-24T16:33:09;3.37;;;2.10;;
14116;SDS011;7137;51.436;6.544;2023-06-24T16:36:11;3.30;;;1.97;;
14116;SDS011;7137;51.436;6.544;2023-06-24T16:39:15;3.63;;;2.37;;
14116;SDS011;7137;51.436;6.544;2023-06-24T16:42:16;3.83;;;2.43;;
14116;SDS011;7137;51.436;6.544;2023-06-24T16:45:19;3.80;;;2.20;;
14116;SDS011;7137;51.436;6.544;2023-06-24T16:48:21;6.37;;;2.40;;
14116;SDS011;7137;51.436;6.544;2023-06-24T16:51:22;3.97;;;2.50;;
14116;SDS011;7137;51.436;6.544;2023-06-24T16:54:24;5.37;;;2.27;;
14116;SDS011;7137;51.436;6.544;2023-06-24T16:57:26;4.50;;;2.30;;
14116;SDS011;7137;51.436;6.544;2023-06-24T17:00:29;3.70;;;2.40;;
14116;SDS011;7137;51.436;6.544;2023-06-24T17:03:31;3.57;;;2.40;;
14116;SDS011;7137;51.436;6.544;2023-06-24T17:06:32;3.53;;;2.30;;
14116;SDS011;7137;51.436;6.544;2023-06-24T17:09:34;3.60;;;2.10;;
14116;SDS011;7137;51.436;6.544;2023-06-24T17:12:35;4.13;;;2.60;;
14116;SDS011;7137;51.436;6.544;2023-06-24T17:15:38;5.57;;;2.63;;
14116;SDS011;7137;51.436;6.544;2023-06-24T17:18:40;4.87;;;2.50;;
14116;SDS011;7137;51.436;6.544;2023-06-24T17:21:41;4.20;;;2.40;;
14116;SDS011;7137;51.436;6.544;2023-06-24T17:24:43;3.83;;;2.43;;
14116;SDS011;7137;51.436;6.544;2023-06-24T17:27:44;4.00;;;2.40;;
14116;SDS011;7137;51.436;6.544;2023-06-24T17:30:47;3.80;;;2.50;;
14116;SDS011;7137;51.436;6.544;2023-06-24T17:33:49;3.97;;;2.87;;
14116;SDS011;7137;51.436;6.544;2023-06-24T17:36:50;3.73;;;2.33;;
14116;SDS011;7137;51.436;6.544;2023-06-24T17:39:52;4.63;;;2.80;;
14116;SDS011;7137;51.436;6.544;2023-06-24T17:42:53;3.90;;;2.50;;
14116;SDS011;7137;51.436;6.544;2023-06-24T17:45:58;3.90;;;2.43;;
14116;SDS011;7137;51.436;6.544;2023-06-24T17:48:59;4.60;;;2.80;;
14116;SDS011;7137;51.436;6.544;2023-06-24T17:52:01;5.13;;;2.87;;
14116;SDS011;7137;51.436;6.544;2023-06-24T17:55:02;5.13;;;2.60;;
14116;SDS011;7137;51.436;6.544;2023-06-24T17:58:05;3.83;;;2.70;;
14116;SDS011;7137;51.436;6.544;2023-06-24T18:01:08;4.00;;;2.67;;
14116;SDS011;7137;51.436;6.544;2023-06-24T18:04:15;4.07;;;2.60;;
14116;SDS011;7137;51.436;6.544;2023-06-24T18:07:16;4.73;;;2.60;;
14116;SDS011;7137;51.436;6.544;2023-06-24T18:10:18;4.83;;;2.70;;
14116;SDS011;7137;51.436;6.544;2023-06-24T18:13:20;5.00;;;2.57;;
14116;SDS011;7137;51.436;6.544;2023-06-24T18:16:23;4.30;;;2.57;;
14116;SDS011;7137;51.436;6.544;2023-06-24T18:19:24;4.17;;;2.57;;
14116;SDS011;7137;51.436;6.544;2023-06-24T18:22:26;4.83;;;2.80;;
14116;SDS011;7137;51.436;6.544;2023-06-24T18:25:27;4.20;;;3.00;;
14116;SDS011;7137;51.436;6.544;2023-06-24T18:28:29;4.40;;;2.90;;